Flingsville, Kentucky
Current Conditions -  °F | °C
As of 8:52 AM on Monday 20 Oct 2014 (Local Time) from KCVG Reporting Station
Broken Clouds Broken Clouds  
Wind Chill: 45°   Ceiling: 11000
Heat Index: 49°   Visibility: 10mi
Dew Point: 43°   Wind: 8mph
Humidity: 80%   Direction: 200°SSW
Pressure: 30.01"   Gusts: NA
Location:  38.7783°N, 84.6037°W
Report Text: KCVG 201252Z 20007KT 10SM BKN110 BKN160 09/06 A3001 RMK AO2 SLP160 T00940061
Loading
Personal Weather Stations






























Interactive Weather Map
Tropical Storm Tracking
New forecast layout! Learn more

10-Day Weather Forecast

Advertisements
Track Severe Weather on mobile